| time (UTC) | temp F | wind direction | speed MPH | gust MPH | rain 1hr in | rain 24hr in | rain mn in | humidity % | barometer mb |
| 20260906181007 | 93 | 243 | 6.0 | 10.0 | 0.00 | 0.00 | 0.00 | 48 | 1012.1 |
| 20260906180506 | 93 | 198 | 7.0 | 13.0 | 0.00 | 0.00 | 0.00 | 48 | 1012.1 |
| 20260906180006 | 93 | 259 | 2.0 | 9.0 | 0.00 | 0.00 | 0.00 | 48 | 1012.2 |
| 20260906175506 | 93 | 228 | 7.0 | 14.0 | 0.00 | 0.00 | 0.00 | 48 | 1012.2 |
| 20260906175007 | 93 | 215 | 7.0 | 13.0 | 0.00 | 0.00 | 0.00 | 48 | 1012.4 |
| 20260906174506 | 93 | 252 | 6.0 | 9.0 | 0.00 | 0.00 | 0.00 | 50 | 1012.5 |
| 20260906174007 | 93 | 220 | 6.0 | 12.0 | 0.00 | 0.00 | 0.00 | 48 | 1012.5 |
| 20260906173007 | 93 | 179 | 1.0 | 6.0 | 0.00 | 0.00 | 0.00 | 50 | 1012.6 |
| 20260906172507 | 93 | 172 | 3.0 | 8.0 | 0.00 | 0.00 | 0.00 | 50 | 1012.7 |
| 20260906172007 | 93 | 205 | 6.0 | 10.0 | 0.00 | 0.00 | 0.00 | 48 | 1012.8 |
| 20260906171507 | 94 | 209 | 8.0 | 14.0 | 0.00 | 0.00 | 0.00 | 47 | 1012.9 |
| 20260906171007 | 94 | 161 | 7.0 | 12.0 | 0.00 | 0.00 | 0.00 | 48 | 1012.8 |
| 20260906170506 | 93 | 193 | 6.0 | 18.0 | 0.00 | 0.00 | 0.00 | 50 | 1012.9 |
| 20260906170006 | 92 | 132 | 6.0 | 10.0 | 0.00 | 0.00 | 0.00 | 50 | 1012.8 |
| 20260906165507 | 91 | 184 | 5.0 | 12.0 | 0.00 | 0.00 | 0.00 | 53 | 1012.9 |
| 20260906165007 | 91 | 164 | 3.0 | 13.0 | 0.00 | 0.00 | 0.00 | 57 | 1012.9 |
| 20260906164507 | 91 | 236 | 5.0 | 12.0 | 0.00 | 0.00 | 0.00 | 55 | 1012.8 |
| 20260906164007 | 91 | 228 | 5.0 | 9.0 | 0.00 | 0.00 | 0.00 | 58 | 1012.8 |
| 20260906163007 | 90 | 227 | 6.0 | 10.0 | 0.00 | 0.00 | 0.00 | 58 | 1012.9 |
| 20260906162508 | 90 | 207 | 5.0 | 10.0 | 0.00 | 0.00 | 0.00 | 58 | 1012.8 |
| 20260906162008 | 90 | 240 | 5.0 | 8.0 | 0.00 | 0.00 | 0.00 | 58 | 1012.9 |
| 20260906161011 | 89 | 235 | 7.0 | 12.0 | 0.00 | 0.00 | 0.00 | 62 | 1012.9 |
| 20260906160507 | 89 | 234 | 3.0 | 10.0 | 0.00 | 0.00 | 0.00 | 64 | 1013.0 |
| 20260906155508 | 88 | 178 | 5.0 | 12.0 | 0.00 | 0.00 | 0.00 | 66 | 1013.0 |
| 20260906155007 | 88 | 162 | 6.0 | 10.0 | 0.00 | 0.00 | 0.00 | 67 | 1013.0 |
| 20260906154507 | 87 | 144 | 6.0 | 10.0 | 0.00 | 0.00 | 0.00 | 69 | 1013.1 |
| 20260906154008 | 87 | 208 | 6.0 | 10.0 | 0.00 | 0.00 | 0.00 | 69 | 1013.1 |
| 20260906153507 | 87 | 227 | 7.0 | 10.0 | 0.00 | 0.00 | 0.00 | 70 | 1013.1 |
| 20260906152507 | 87 | 185 | 4.0 | 8.0 | 0.00 | 0.00 | 0.00 | 72 | 1012.9 |
| 20260906152009 | 87 | 253 | 5.0 | 7.0 | 0.00 | 0.00 | 0.00 | 72 | 1013.0 |
| 20260906151507 | 87 | 216 | 5.0 | 9.0 | 0.00 | 0.00 | 0.00 | 72 | 1013.0 |
| 20260906151008 | 86 | 204 | 5.0 | 8.0 | 0.00 | 0.00 | 0.00 | 73 | 1013.1 |
| 20260906150508 | 86 | 157 | 3.0 | 6.0 | 0.00 | 0.00 | 0.00 | 75 | 1013.1 |
| 20260906150007 | 85 | 186 | 4.0 | 8.0 | 0.00 | 0.00 | 0.00 | 76 | 1013.1 |
| 20260906145507 | 85 | 188 | 2.0 | 5.0 | 0.00 | 0.00 | 0.00 | 75 | 1013.1 |
| 20260906145008 | 86 | 195 | 5.0 | 9.0 | 0.00 | 0.00 | 0.00 | 74 | 1013.1 |
| 20260906144508 | 86 | 236 | 5.0 | 7.0 | 0.00 | 0.00 | 0.00 | 74 | 1013.0 |
| 20260906144008 | 87 | 220 | 5.0 | 6.0 | 0.00 | 0.00 | 0.00 | 73 | 1013.0 |
| 20260906143507 | 87 | 186 | 3.0 | 7.0 | 0.00 | 0.00 | 0.00 | 73 | 1012.9 |
| 20260906143008 | 86 | 174 | 5.0 | 8.0 | 0.00 | 0.00 | 0.00 | 74 | 1012.8 |
| 20260906142507 | 86 | 162 | 3.0 | 6.0 | 0.00 | 0.00 | 0.00 | 75 | 1012.8 |
| 20260906142008 | 86 | 163 | 3.0 | 8.0 | 0.00 | 0.00 | 0.00 | 76 | 1012.7 |
| 20260906141507 | 85 | 157 | 3.0 | 8.0 | 0.00 | 0.00 | 0.00 | 76 | 1012.8 |
| 20260906141008 | 85 | 189 | 3.0 | 6.0 | 0.00 | 0.00 | 0.00 | 77 | 1012.7 |
| 20260906140507 | 84 | 196 | 3.0 | 5.0 | 0.00 | 0.00 | 0.00 | 78 | 1012.7 |
| 20260906140008 | 84 | 168 | 1.0 | 5.0 | 0.00 | 0.00 | 0.00 | 78 | 1012.7 |
| 20260906135507 | 83 | 143 | 2.0 | 3.0 | 0.00 | 0.00 | 0.00 | 78 | 1012.7 |
| 20260906135008 | 83 | 85 | 0.0 | 3.0 | 0.00 | 0.00 | 0.00 | 79 | 1012.8 |
| 20260906134507 | 82 | 139 | 2.0 | 3.0 | 0.00 | 0.00 | 0.00 | 79 | 1012.7 |
| 20260906134008 | 82 | 83 | 2.0 | 3.0 | 0.00 | 0.00 | 0.00 | 82 | 1012.6 |
| 20260906133507 | 82 | 117 | 2.0 | 3.0 | 0.00 | 0.00 | 0.00 | 84 | 1012.7 |
| 20260906133008 | 81 | 119 | 1.0 | 2.0 | 0.00 | 0.00 | 0.00 | 86 | 1012.7 |
| 20260906132507 | 81 | 102 | 2.0 | 3.0 | 0.00 | 0.00 | 0.00 | 87 | 1012.6 |
| 20260906132007 | 80 | 110 | 2.0 | 5.0 | 0.00 | 0.00 | 0.00 | 88 | 1012.6 |
| 20260906131509 | 80 | 107 | 3.0 | 6.0 | 0.00 | 0.00 | 0.00 | 89 | 1012.5 |
| 20260906131008 | 79 | 124 | 3.0 | 5.0 | 0.00 | 0.00 | 0.00 | 90 | 1012.5 |
| 20260906130508 | 79 | 117 | 2.0 | 3.0 | 0.00 | 0.00 | 0.00 | 91 | 1012.5 |
| 20260906130007 | 79 | 119 | 1.0 | 3.0 | 0.00 | 0.00 | 0.00 | 92 | 1012.5 |
| 20260906125509 | 78 | 115 | 2.0 | 2.0 | 0.00 | 0.00 | 0.00 | 92 | 1012.3 |
| 20260906125007 | 78 | 133 | 2.0 | 3.0 | 0.00 | 0.00 | 0.00 | 93 | 1012.2 |
| 20260906124507 | 78 | 133 | 3.0 | 3.0 | 0.00 | 0.00 | 0.00 | 93 | 1012.1 |
| 20260906124008 | 78 | 126 | 2.0 | 3.0 | 0.00 | 0.00 | 0.00 | 93 | 1012.0 |
| 20260906123508 | 78 | 107 | 0.0 | 2.0 | 0.00 | 0.00 | 0.00 | 93 | 1012.0 |
| 20260906123007 | 78 | 138 | 2.0 | 3.0 | 0.00 | 0.00 | 0.00 | 93 | 1011.9 |
| 20260906122508 | 77 | 107 | 1.0 | 3.0 | 0.00 | 0.00 | 0.00 | 93 | 1011.8 |
| 20260906122008 | 77 | 122 | 3.0 | 5.0 | 0.00 | 0.00 | 0.00 | 93 | 1011.6 |
| 20260906121008 | 77 | 147 | 2.0 | 3.0 | 0.00 | 0.00 | 0.00 | 93 | 1011.4 |
| 20260906120507 | 77 | 92 | 0.0 | 0.0 | 0.00 | 0.00 | 0.00 | 93 | 1011.4 |
| 20260906120007 | 77 | 92 | 0.0 | 1.0 | 0.00 | 0.00 | 0.00 | 93 | 1011.5 |
| 20260906115008 | 78 | 105 | 1.0 | 2.0 | 0.00 | 0.00 | 0.00 | 92 | 1011.4 |
| 20260906114508 | 78 | 112 | 1.0 | 1.0 | 0.00 | 0.00 | 0.00 | 92 | 1011.4 |
| 20260906114007 | 78 | 126 | 0.0 | 0.0 | 0.00 | 0.00 | 0.00 | 92 | 1011.3 |
| 20260906113508 | 78 | 125 | 1.0 | 2.0 | 0.00 | 0.00 | 0.00 | 92 | 1011.3 |
| 20260906113008 | 78 | 118 | 1.0 | 2.0 | 0.00 | 0.00 | 0.00 | 92 | 1011.3 |
| 20260906112507 | 78 | 126 | 2.0 | 2.0 | 0.00 | 0.00 | 0.00 | 92 | 1011.1 |
| 20260906112008 | 78 | 92 | 0.0 | 0.0 | 0.00 | 0.00 | 0.00 | 92 | 1011.0 |
| 20260906111507 | 78 | 92 | 0.0 | 0.0 | 0.00 | 0.00 | 0.00 | 92 | 1011.0 |
| 20260906111008 | 78 | 92 | 0.0 | 0.0 | 0.00 | 0.00 | 0.00 | 92 | 1010.9 |
| 20260906110507 | 78 | 92 | 0.0 | 0.0 | 0.00 | 0.00 | 0.00 | 92 | 1011.0 |
| 20260906110007 | 78 | 92 | 0.0 | 1.0 | 0.00 | 0.00 | 0.00 | 91 | 1010.9 |
| 20260906105507 | 79 | 115 | 1.0 | 2.0 | 0.00 | 0.00 | 0.00 | 91 | 1011.0 |
| 20260906105007 | 79 | 115 | 2.0 | 3.0 | 0.00 | 0.00 | 0.00 | 91 | 1011.1 |
| 20260906104008 | 79 | 162 | 2.0 | 3.0 | 0.00 | 0.00 | 0.00 | 91 | 1011.0 |
| 20260906102008 | 78 | 154 | 0.0 | 0.0 | 0.00 | 0.00 | 0.00 | 90 | 1010.9 |
| 20260906101507 | 78 | 154 | 0.0 | 0.0 | 0.00 | 0.00 | 0.00 | 90 | 1010.9 |
| 20260906101008 | 78 | 154 | 0.0 | 2.0 | 0.00 | 0.00 | 0.00 | 90 | 1010.8 |
| 20260906100507 | 78 | 176 | 1.0 | 2.0 | 0.00 | 0.00 | 0.00 | 90 | 1010.7 |
| 20260906100007 | 79 | 169 | 1.0 | 3.0 | 0.00 | 0.00 | 0.00 | 90 | 1010.7 |
| 20260906095507 | 79 | 189 | 2.0 | 3.0 | 0.00 | 0.00 | 0.00 | 90 | 1010.6 |
| 20260906095007 | 79 | 199 | 2.0 | 3.0 | 0.00 | 0.00 | 0.00 | 90 | 1010.5 |
| 20260906094507 | 79 | 198 | 2.0 | 3.0 | 0.00 | 0.00 | 0.00 | 90 | 1010.5 |
| 20260906094007 | 79 | 178 | 2.0 | 5.0 | 0.00 | 0.00 | 0.00 | 90 | 1010.6 |
| 20260906093508 | 79 | 166 | 3.0 | 5.0 | 0.00 | 0.00 | 0.00 | 89 | 1010.5 |
| 20260906093008 | 79 | 181 | 1.0 | 3.0 | 0.00 | 0.00 | 0.00 | 89 | 1010.6 |
| 20260906092507 | 79 | 188 | 3.0 | 5.0 | 0.00 | 0.00 | 0.00 | 89 | 1010.6 |
| 20260906092008 | 79 | 195 | 2.0 | 6.0 | 0.00 | 0.00 | 0.00 | 89 | 1010.5 |
| 20260906091507 | 79 | 204 | 3.0 | 6.0 | 0.00 | 0.00 | 0.00 | 90 | 1010.6 |
| 20260906091007 | 79 | 198 | 3.0 | 5.0 | 0.00 | 0.00 | 0.00 | 89 | 1010.7 |
| 20260906090007 | 79 | 184 | 1.0 | 3.0 | 0.00 | 0.00 | 0.00 | 89 | 1010.8 |
| 20260906085507 | 79 | 191 | 2.0 | 5.0 | 0.00 | 0.00 | 0.00 | 89 | 1010.7 |
| 20260906085007 | 79 | 196 | 2.0 | 5.0 | 0.00 | 0.00 | 0.00 | 89 | 1010.7 |
| 20260906084007 | 79 | 173 | 1.0 | 2.0 | 0.00 | 0.00 | 0.00 | 89 | 1010.6 |
| 20260906083508 | 79 | 201 | 1.0 | 2.0 | 0.00 | 0.00 | 0.00 | 89 | 1010.7 |
| 20260906083007 | 79 | 182 | 1.0 | 2.0 | 0.00 | 0.00 | 0.00 | 89 | 1010.7 |
| 20260906082507 | 79 | 220 | 2.0 | 2.0 | 0.00 | 0.00 | 0.00 | 89 | 1010.8 |
| 20260906082008 | 80 | 133 | 0.0 | 1.0 | 0.00 | 0.00 | 0.00 | 88 | 1010.7 |
| 20260906081508 | 80 | 118 | 2.0 | 2.0 | 0.00 | 0.00 | 0.00 | 88 | 1010.6 |
| 20260906081007 | 80 | 139 | 0.0 | 2.0 | 0.00 | 0.00 | 0.00 | 88 | 1010.7 |
| 20260906080507 | 80 | 138 | 0.0 | 0.0 | 0.00 | 0.00 | 0.00 | 88 | 1010.7 |
| 20260906080007 | 80 | 138 | 0.0 | 0.0 | 0.00 | 0.00 | 0.00 | 88 | 1010.6 |
| 20260906075507 | 80 | 138 | 0.0 | 0.0 | 0.00 | 0.00 | 0.00 | 87 | 1010.5 |
| 20260906075007 | 80 | 138 | 0.0 | 0.0 | 0.00 | 0.00 | 0.00 | 87 | 1010.4 |
| 20260906074507 | 80 | 138 | 1.0 | 2.0 | 0.00 | 0.00 | 0.00 | 87 | 1010.5 |
| 20260906073507 | 80 | 177 | 1.0 | 2.0 | 0.00 | 0.00 | 0.00 | 87 | 1010.6 |
| 20260906073008 | 80 | 170 | 3.0 | 5.0 | 0.00 | 0.00 | 0.00 | 87 | 1010.7 |
| 20260906072507 | 80 | 150 | 3.0 | 5.0 | 0.00 | 0.00 | 0.00 | 87 | 1010.7 |
| 20260906072007 | 80 | 150 | 2.0 | 3.0 | 0.00 | 0.00 | 0.00 | 87 | 1010.8 |
| 20260906071507 | 80 | 173 | 1.0 | 3.0 | 0.00 | 0.00 | 0.00 | 86 | 1010.9 |
| 20260906071007 | 80 | 198 | 2.0 | 3.0 | 0.00 | 0.00 | 0.00 | 86 | 1011.0 |
| 20260906070007 | 81 | 211 | 3.0 | 5.0 | 0.00 | 0.00 | 0.00 | 86 | 1011.0 |
| 20260906065007 | 80 | 163 | 3.0 | 3.0 | 0.00 | 0.00 | 0.00 | 85 | 1011.3 |
| 20260906064507 | 80 | 181 | 1.0 | 2.0 | 0.00 | 0.00 | 0.00 | 85 | 1011.4 |
| 20260906063507 | 81 | 123 | 0.0 | 1.0 | 0.00 | 0.00 | 0.00 | 84 | 1011.6 |
| 20260906063007 | 81 | 167 | 2.0 | 3.0 | 0.00 | 0.00 | 0.00 | 84 | 1011.7 |
| 20260906062507 | 82 | 207 | 3.0 | 3.0 | 0.00 | 0.00 | 0.00 | 84 | 1011.8 |
| 20260906062007 | 82 | 199 | 2.0 | 3.0 | 0.00 | 0.00 | 0.00 | 84 | 1011.7 |
| 20260906061007 | 82 | 205 | 3.0 | 5.0 | 0.00 | 0.00 | 0.00 | 84 | 1011.8 |
| 20260906060507 | 82 | 201 | 3.0 | 5.0 | 0.00 | 0.00 | 0.00 | 84 | 1011.7 |
| 20260906060008 | 82 | 192 | 3.0 | 6.0 | 0.00 | 0.00 | 0.00 | 83 | 1011.6 |
| 20260906055507 | 82 | 184 | 5.0 | 7.0 | 0.00 | 0.00 | 0.00 | 83 | 1011.8 |
| 20260906055007 | 82 | 187 | 5.0 | 7.0 | 0.00 | 0.00 | 0.00 | 83 | 1012.0 |
| 20260906054507 | 82 | 193 | 4.0 | 6.0 | 0.00 | 0.00 | 0.00 | 83 | 1012.0 |
| 20260906054007 | 83 | 160 | 5.0 | 8.0 | 0.00 | 0.00 | 0.00 | 83 | 1011.9 |
| 20260906053007 | 83 | 170 | 3.0 | 7.0 | 0.00 | 0.00 | 0.00 | 83 | 1012.0 |
| 20260906052507 | 83 | 189 | 5.0 | 8.0 | 0.00 | 0.00 | 0.00 | 83 | 1012.1 |
| 20260906052007 | 83 | 196 | 6.0 | 10.0 | 0.00 | 0.00 | 0.00 | 83 | 1012.2 |
| 20260906051008 | 83 | 198 | 5.0 | 7.0 | 0.00 | 0.00 | 0.00 | 83 | 1012.5 |
| 20260906050507 | 83 | 192 | 5.0 | 7.0 | 0.00 | 0.00 | 0.00 | 83 | 1012.5 |
| 20260906050007 | 83 | 195 | 5.0 | 8.0 | 0.00 | 0.00 | 0.00 | 83 | 1012.6 |
| 20260906045506 | 83 | 180 | 3.0 | 8.0 | 0.00 | 0.00 | 0.00 | 83 | 1012.6 |
| 20260906045007 | 83 | 178 | 4.0 | 7.0 | 0.00 | 0.00 | 0.00 | 83 | 1012.6 |
| 20260906044507 | 83 | 185 | 5.0 | 8.0 | 0.00 | 0.00 | 0.00 | 83 | 1012.7 |
| 20260906043507 | 83 | 187 | 5.0 | 8.0 | 0.00 | 0.00 | 0.00 | 82 | 1012.7 |
| 20260906042506 | 83 | 171 | 5.0 | 9.0 | 0.00 | 0.00 | 0.00 | 82 | 1012.7 |
| 20260906042007 | 83 | 183 | 5.0 | 10.0 | 0.00 | 0.00 | 0.00 | 82 | 1012.6 |
| 20260906041007 | 83 | 176 | 5.0 | 8.0 | 0.00 | 0.00 | 0.00 | 81 | 1012.5 |
| 20260906040007 | 83 | 191 | 6.0 | 10.0 | 0.00 | 0.00 | 0.00 | 81 | 1012.7 |
| 20260906035507 | 83 | 180 | 3.0 | 8.0 | 0.00 | 0.00 | 0.00 | 80 | 1012.7 |
| 20260906035007 | 83 | 188 | 5.0 | 8.0 | 0.00 | 0.00 | 0.00 | 80 | 1012.6 |
| 20260906034507 | 83 | 178 | 6.0 | 8.0 | 0.00 | 0.00 | 0.00 | 80 | 1012.5 |
| 20260906034007 | 84 | 201 | 5.0 | 9.0 | 0.00 | 0.00 | 0.00 | 80 | 1012.6 |
| 20260906033506 | 83 | 186 | 6.0 | 8.0 | 0.00 | 0.00 | 0.00 | 79 | 1012.4 |
| 20260906033008 | 84 | 205 | 5.0 | 9.0 | 0.00 | 0.00 | 0.00 | 79 | 1012.4 |
| 20260906032506 | 84 | 198 | 5.0 | 7.0 | 0.00 | 0.00 | 0.00 | 79 | 1012.4 |
| 20260906032007 | 84 | 196 | 5.0 | 7.0 | 0.00 | 0.00 | 0.00 | 79 | 1012.2 |
| 20260906031507 | 84 | 196 | 4.0 | 7.0 | 0.00 | 0.00 | 0.00 | 79 | 1012.2 |
| 20260906031010 | 84 | 182 | 4.0 | 8.0 | 0.00 | 0.00 | 0.00 | 80 | 1011.9 |
| 20260906030507 | 84 | 156 | 6.0 | 8.0 | 0.00 | 0.00 | 0.00 | 80 | 1011.6 |
| 20260906030007 | 84 | 158 | 7.0 | 15.0 | 0.00 | 0.00 | 0.00 | 80 | 1011.5 |
| 20260906025507 | 84 | 156 | 9.0 | 14.0 | 0.00 | 0.00 | 0.00 | 80 | 1011.5 |
| 20260906025007 | 84 | 150 | 10.0 | 15.0 | 0.00 | 0.00 | 0.00 | 79 | 1011.3 |
| 20260906024506 | 84 | 151 | 10.0 | 14.0 | 0.00 | 0.00 | 0.00 | 79 | 1011.1 |
| 20260906024008 | 84 | 148 | 9.0 | 13.0 | 0.00 | 0.00 | 0.00 | 80 | 1011.0 |
| 20260906023008 | 84 | 141 | 10.0 | 13.0 | 0.00 | 0.00 | 0.00 | 78 | 1010.7 |
| 20260906022506 | 84 | 151 | 9.0 | 15.0 | 0.00 | 0.00 | 0.00 | 78 | 1010.7 |
| 20260906022007 | 84 | 144 | 10.0 | 16.0 | 0.00 | 0.00 | 0.00 | 78 | 1010.7 |
| 20260906021507 | 85 | 145 | 9.0 | 14.0 | 0.00 | 0.00 | 0.00 | 77 | 1010.7 |
| 20260906021007 | 85 | 143 | 10.0 | 16.0 | 0.00 | 0.00 | 0.00 | 76 | 1010.7 |
| 20260906020007 | 85 | 154 | 13.0 | 20.0 | 0.00 | 0.00 | 0.00 | 76 | 1010.6 |
| 20260906015506 | 84 | 157 | 12.0 | 16.0 | 0.00 | 0.00 | 0.00 | 74 | 1010.6 |
| 20260906015008 | 85 | 150 | 12.0 | 17.0 | 0.00 | 0.00 | 0.00 | 73 | 1010.6 |
| 20260906014507 | 85 | 153 | 9.0 | 16.0 | 0.00 | 0.00 | 0.00 | 72 | 1010.6 |
| 20260906013507 | 85 | 153 | 11.0 | 15.0 | 0.00 | 0.00 | 0.00 | 69 | 1010.6 |
| 20260906013007 | 86 | 156 | 7.0 | 13.0 | 0.00 | 0.00 | 0.00 | 68 | 1010.6 |
| 20260906012507 | 86 | 153 | 9.0 | 14.0 | 0.00 | 0.00 | 0.00 | 67 | 1010.5 |
| 20260906012007 | 86 | 152 | 10.0 | 15.0 | 0.00 | 0.00 | 0.00 | 67 | 1010.3 |
| 20260906011507 | 87 | 153 | 8.0 | 14.0 | 0.00 | 0.00 | 0.00 | 65 | 1010.3 |
| 20260906011008 | 87 | 149 | 12.0 | 15.0 | 0.00 | 0.00 | 0.00 | 64 | 1010.3 |
| 20260906010507 | 87 | 154 | 9.0 | 17.0 | 0.00 | 0.00 | 0.00 | 62 | 1010.2 |
| 20260906010007 | 87 | 159 | 10.0 | 15.0 | 0.00 | 0.00 | 0.00 | 62 | 1010.2 |
| 20260906005507 | 87 | 155 | 10.0 | 16.0 | 0.00 | 0.00 | 0.00 | 60 | 1010.1 |
| 20260906005007 | 87 | 147 | 13.0 | 17.0 | 0.00 | 0.00 | 0.00 | 60 | 1009.9 |
| 20260906004507 | 87 | 142 | 13.0 | 17.0 | 0.00 | 0.00 | 0.00 | 60 | 1009.8 |
| 20260906004007 | 88 | 143 | 13.0 | 18.0 | 0.00 | 0.00 | 0.00 | 57 | 1009.8 |
| 20260906003506 | 88 | 146 | 13.0 | 16.0 | 0.00 | 0.00 | 0.00 | 57 | 1009.7 |
| 20260906003007 | 88 | 140 | 14.0 | 18.0 | 0.00 | 0.00 | 0.00 | 56 | 1009.7 |
| 20260906002506 | 89 | 144 | 13.0 | 18.0 | 0.00 | 0.00 | 0.00 | 57 | 1009.7 |
| 20260906002007 | 89 | 131 | 14.0 | 21.0 | 0.00 | 0.00 | 0.00 | 55 | 1009.7 |
| 20260906001507 | 89 | 132 | 13.0 | 21.0 | 0.00 | 0.00 | 0.00 | 54 | 1009.6 |
| 20260906001007 | 90 | 138 | 13.0 | 17.0 | 0.00 | 0.00 | 0.00 | 54 | 1009.6 |
| 20260906000507 | 90 | 138 | 13.0 | 16.0 | 0.00 | 0.00 | 0.00 | 53 | 1009.5 |
| 20260906000006 | 90 | 144 | 13.0 | 21.0 | 0.00 | 0.00 | 0.00 | 52 | 1009.6 |
| 20260905235007 | 90 | 137 | 13.0 | 17.0 | 0.00 | 0.00 | 0.00 | 53 | 1009.6 |
| 20260905234507 | 90 | 131 | 14.0 | 21.0 | 0.00 | 0.00 | 0.00 | 54 | 1009.5 |
| 20260905234007 | 91 | 130 | 15.0 | 20.0 | 0.00 | 0.00 | 0.00 | 53 | 1009.4 |
| 20260905233008 | 91 | 135 | 16.0 | 20.0 | 0.00 | 0.00 | 0.00 | 51 | 1009.4 |
| 20260905232506 | 91 | 141 | 16.0 | 21.0 | 0.00 | 0.00 | 0.00 | 52 | 1009.4 |
| 20260905232007 | 92 | 140 | 16.0 | 22.0 | 0.00 | 0.00 | 0.00 | 49 | 1009.3 |
| 20260905231507 | 92 | 131 | 12.0 | 18.0 | 0.00 | 0.00 | 0.00 | 49 | 1009.3 |
| 20260905231007 | 92 | 144 | 14.0 | 20.0 | 0.00 | 0.00 | 0.00 | 50 | 1009.1 |
| 20260905230506 | 93 | 142 | 12.0 | 20.0 | 0.00 | 0.00 | 0.00 | 48 | 1009.0 |
| 20260905230007 | 93 | 136 | 14.0 | 21.0 | 0.00 | 0.00 | 0.00 | 47 | 1008.9 |
| 20260905225507 | 93 | 128 | 15.0 | 22.0 | 0.00 | 0.00 | 0.00 | 48 | 1008.9 |
| 20260905225007 | 93 | 125 | 13.0 | 20.0 | 0.00 | 0.00 | 0.00 | 47 | 1008.8 |
| 20260905224506 | 94 | 123 | 14.0 | 20.0 | 0.00 | 0.00 | 0.00 | 46 | 1008.8 |
| 20260905224007 | 93 | 140 | 13.0 | 21.0 | 0.00 | 0.00 | 0.00 | 47 | 1008.9 |
| 20260905223007 | 94 | 142 | 15.0 | 22.0 | 0.00 | 0.00 | 0.00 | 46 | 1008.9 |
| 20260905222507 | 94 | 145 | 14.0 | 18.0 | 0.00 | 0.00 | 0.00 | 45 | 1009.0 |
| 20260905222007 | 95 | 131 | 13.0 | 20.0 | 0.00 | 0.00 | 0.00 | 44 | 1009.0 |
| 20260905221507 | 96 | 132 | 13.0 | 20.0 | 0.00 | 0.00 | 0.00 | 42 | 1009.0 |
| 20260905220507 | 96 | 133 | 14.0 | 20.0 | 0.00 | 0.00 | 0.00 | 42 | 1008.9 |
| 20260905220007 | 96 | 138 | 12.0 | 17.0 | 0.00 | 0.00 | 0.00 | 43 | 1008.8 |
| 20260905214008 | 95 | 123 | 10.0 | 15.0 | 0.00 | 0.00 | 0.00 | 46 | 1008.8 |
| 20260905213506 | 94 | 132 | 11.0 | 15.0 | 0.00 | 0.00 | 0.00 | 47 | 1008.9 |
| 20260905213007 | 94 | 162 | 8.0 | 14.0 | 0.00 | 0.00 | 0.00 | 48 | 1008.9 |
| 20260905212507 | 94 | 146 | 11.0 | 16.0 | 0.00 | 0.00 | 0.00 | 47 | 1009.0 |
| 20260905212007 | 95 | 156 | 11.0 | 16.0 | 0.00 | 0.00 | 0.00 | 47 | 1008.9 |
| 20260905211506 | 96 | 115 | 11.0 | 17.0 | 0.00 | 0.00 | 0.00 | 44 | 1008.9 |
| 20260905211007 | 96 | 136 | 11.0 | 18.0 | 0.00 | 0.00 | 0.00 | 45 | 1008.9 |
| 20260905210506 | 96 | 144 | 10.0 | 18.0 | 0.00 | 0.00 | 0.00 | 45 | 1009.0 |
| 20260905210006 | 97 | 153 | 9.0 | 14.0 | 0.00 | 0.00 | 0.00 | 44 | 1009.0 |
| 20260905205507 | 97 | 135 | 10.0 | 16.0 | 0.00 | 0.00 | 0.00 | 43 | 1009.1 |
| 20260905205007 | 97 | 124 | 12.0 | 20.0 | 0.00 | 0.00 | 0.00 | 43 | 1009.1 |
| 20260905204506 | 97 | 122 | 11.0 | 16.0 | 0.00 | 0.00 | 0.00 | 44 | 1009.2 |
| 20260905204006 | 96 | 161 | 8.0 | 14.0 | 0.00 | 0.00 | 0.00 | 45 | 1009.3 |
| 20260905203506 | 95 | 153 | 10.0 | 16.0 | 0.00 | 0.00 | 0.00 | 47 | 1009.5 |
| 20260905203007 | 95 | 142 | 10.0 | 16.0 | 0.00 | 0.00 | 0.00 | 47 | 1009.7 |
| 20260905202507 | 95 | 137 | 9.0 | 12.0 | 0.00 | 0.00 | 0.00 | 46 | 1009.7 |
| 20260905202008 | 95 | 141 | 12.0 | 17.0 | 0.00 | 0.00 | 0.00 | 46 | 1009.8 |
| 20260905201506 | 95 | 120 | 10.0 | 16.0 | 0.00 | 0.00 | 0.00 | 45 | 1009.8 |
| 20260905201007 | 95 | 123 | 10.0 | 15.0 | 0.00 | 0.00 | 0.00 | 44 | 1009.9 |
| 20260905200507 | 95 | 140 | 6.0 | 12.0 | 0.00 | 0.00 | 0.00 | 44 | 1009.9 |
| 20260905200006 | 95 | 127 | 8.0 | 14.0 | 0.00 | 0.00 | 0.00 | 44 | 1009.9 |
| 20260905195506 | 95 | 153 | 9.0 | 12.0 | 0.00 | 0.00 | 0.00 | 46 | 1010.1 |
| 20260905194507 | 96 | 112 | 10.0 | 15.0 | 0.00 | 0.00 | 0.00 | 43 | 1010.2 |
| 20260905194007 | 96 | 130 | 9.0 | 13.0 | 0.00 | 0.00 | 0.00 | 43 | 1010.2 |
| 20260905193507 | 96 | 90 | 7.0 | 13.0 | 0.00 | 0.00 | 0.00 | 43 | 1010.4 |
| 20260905193007 | 96 | 135 | 6.0 | 14.0 | 0.00 | 0.00 | 0.00 | 44 | 1010.5 |
| 20260905192506 | 96 | 166 | 5.0 | 10.0 | 0.00 | 0.00 | 0.00 | 41 | 1010.6 |
| 20260905192007 | 96 | 121 | 7.0 | 17.0 | 0.00 | 0.00 | 0.00 | 42 | 1010.7 |
| 20260905191506 | 96 | 229 | 7.0 | 12.0 | 0.00 | 0.00 | 0.00 | 42 | 1010.8 |
| 20260905191007 | 96 | 160 | 7.0 | 13.0 | 0.00 | 0.00 | 0.00 | 44 | 1010.8 |
| 20260905190006 | 96 | 139 | 8.0 | 14.0 | 0.00 | 0.00 | 0.00 | 44 | 1010.8 |
| 20260905185507 | 96 | 153 | 5.0 | 14.0 | 0.00 | 0.00 | 0.00 | 44 | 1010.9 |
| 20260905185007 | 96 | 197 | 9.0 | 15.0 | 0.00 | 0.00 | 0.00 | 41 | 1011.0 |
| 20260905184007 | 94 | 110 | 9.0 | 15.0 | 0.00 | 0.00 | 0.00 | 46 | 1011.1 |
| 20260905183506 | 94 | 160 | 6.0 | 9.0 | 0.00 | 0.00 | 0.00 | 47 | 1011.3 |
| 20260905183007 | 94 | 127 | 5.0 | 13.0 | 0.00 | 0.00 | 0.00 | 48 | 1011.4 |
| 20260905182506 | 95 | 146 | 8.0 | 13.0 | 0.00 | 0.00 | 0.00 | 47 | 1011.4 |
| 20260905182006 | 94 | 164 | 4.0 | 10.0 | 0.00 | 0.00 | 0.00 | 46 | 1011.5 |